Time;durP1;ratioP1;P1;durP2;ratioP2;P2;SDS_P1;SDS_P2;PMS_P1;PMS_P2;Temp;Humidity;BMP_temperature;BMP_pressure;BME280_temperature;BME280_humidity;BME280_pressure;Samples;Min_cycle;Max_cycle;Signal;HPM_P1;HPM_P2
2022/08/27 00:00:40;;;;;;;25.55;23.83;;;20.60;59.80;;;;;;5032556;28;20375;-79
2022/08/27 00:03:06;;;;;;;24.77;23.23;;;20.60;59.60;;;;;;5033698;28;20299;-79
2022/08/27 00:05:32;;;;;;;23.92;22.60;;;20.60;59.60;;;;;;5050114;28;20044;-79
2022/08/27 00:07:58;;;;;;;24.58;23.10;;;20.60;59.60;;;;;;5050174;28;20496;-79
2022/08/27 00:10:26;;;;;;;24.02;22.73;;;20.70;59.40;;;;;;5033066;28;20032;-79
2022/08/27 00:12:52;;;;;;;25.60;24.15;;;20.60;59.40;;;;;;5050298;28;20029;-79
2022/08/27 00:15:18;;;;;;;27.27;25.50;;;20.60;59.50;;;;;;5049682;28;20104;-80
2022/08/27 00:17:45;;;;;;;26.08;24.38;;;20.50;59.80;;;;;;5033244;28;20041;-79
2022/08/27 00:20:13;;;;;;;25.40;23.88;;;20.40;60.10;;;;;;5049625;28;20021;-79
2022/08/27 00:22:39;;;;;;;29.50;27.83;;;20.40;60.20;;;;;;5033393;28;20037;-79
2022/08/27 00:25:06;;;;;;;30.42;28.35;;;20.30;60.50;;;;;;5030126;28;20037;-79
2022/08/27 00:27:32;;;;;;;30.25;28.20;;;20.20;60.90;;;;;;5013598;28;20064;-79
2022/08/27 00:29:58;;;;;;;30.98;29.17;;;20.30;60.90;;;;;;4997356;28;20506;-79
2022/08/27 00:32:25;;;;;;;28.60;26.95;;;20.30;60.90;;;;;;5025899;28;20045;-79
2022/08/27 00:34:51;;;;;;;30.38;28.40;;;20.30;60.80;;;;;;4993306;28;20044;-79
2022/08/27 00:37:18;;;;;;;28.60;26.80;;;20.30;60.90;;;;;;4993690;28;20041;-79
2022/08/27 00:39:45;;;;;;;29.33;27.40;;;20.30;60.90;;;;;;5016046;28;20466;-79
2022/08/27 00:42:11;;;;;;;30.60;28.90;;;20.20;61.00;;;;;;5029063;28;20029;-79
2022/08/27 00:44:38;;;;;;;30.25;28.00;;;20.10;61.20;;;;;;5029804;28;20029;-79
2022/08/27 00:47:06;;;;;;;28.55;26.75;;;20.10;61.20;;;;;;5050914;28;20387;-79
2022/08/27 00:49:42;;;;;;;28.08;26.20;;;20.20;61.00;;;;;;5016296;28;20037;-79
2022/08/27 00:52:34;;;;;;;27.55;25.88;;;20.20;60.90;;;;;;5016160;28;20569;-79
2022/08/27 00:55:03;;;;;;;27.67;25.00;;;20.20;61.30;;;;;;5018141;28;20037;-79
2022/08/27 00:57:29;;;;;;;25.73;24.20;;;20.10;61.10;;;;;;5032709;28;20037;-79
2022/08/27 00:59:55;;;;;;;26.58;24.83;;;20.00;61.60;;;;;;5033047;28;20032;-79
2022/08/27 01:02:24;;;;;;;26.35;24.92;;;20.10;61.60;;;;;;5031826;28;20030;-79
2022/08/27 01:05:04;;;;;;;24.20;22.38;;;20.10;61.50;;;;;;5032966;28;20048;-79
2022/08/27 01:07:31;;;;;;;24.60;23.10;;;20.00;61.60;;;;;;5032605;28;20053;-80
2022/08/27 01:09:59;;;;;;;23.25;21.45;;;20.00;61.80;;;;;;5032841;28;20048;-79
2022/08/27 01:12:25;;;;;;;25.77;24.20;;;19.90;61.90;;;;;;5032415;28;20056;-79
2022/08/27 01:14:51;;;;;;;23.52;21.98;;;19.80;62.00;;;;;;5049194;28;20029;-79
2022/08/27 01:17:17;;;;;;;23.35;21.80;;;19.80;62.20;;;;;;5031715;28;20040;-79
2022/08/27 01:19:53;;;;;;;25.10;23.60;;;19.70;62.80;;;;;;5049289;28;20029;-79
2022/08/27 01:22:30;;;;;;;26.88;25.17;;;19.50;63.30;;;;;;5049148;28;20044;-79
2022/08/27 01:24:59;;;;;;;26.58;24.98;;;19.70;63.20;;;;;;5049115;28;20030;-79
2022/08/27 01:27:26;;;;;;;25.85;24.10;;;19.80;63.20;;;;;;5033033;28;20032;-79
2022/08/27 01:29:53;;;;;;;30.50;28.60;;;19.80;62.10;;;;;;5032285;28;20036;-79
2022/08/27 01:32:22;;;;;;;30.05;27.83;;;19.70;62.40;;;;;;5031818;28;20465;-79
2022/08/27 01:34:48;;;;;;;33.50;31.58;;;19.60;62.70;;;;;;5048986;28;20478;-79
2022/08/27 01:37:15;;;;;;;33.63;31.75;;;19.70;62.80;;;;;;5032681;28;20037;-79
2022/08/27 01:39:41;;;;;;;29.20;27.50;;;19.60;63.20;;;;;;5029145;28;20481;-79
2022/08/27 01:42:10;;;;;;;26.30;24.58;;;19.50;63.50;;;;;;5045510;28;20495;-79
2022/08/27 01:44:49;;;;;;;26.02;24.63;;;19.40;63.60;;;;;;5032717;28;20025;-79
2022/08/27 01:47:17;;;;;;;26.33;24.52;;;19.40;63.90;;;;;;5053316;28;20052;-79
2022/08/27 01:49:43;;;;;;;27.65;25.63;;;19.40;64.10;;;;;;5015922;28;20037;-79
2022/08/27 01:52:09;;;;;;;26.35;24.42;;;19.30;64.40;;;;;;5032229;28;20033;-79
2022/08/27 01:54:35;;;;;;;21.70;20.48;;;19.20;64.70;;;;;;5051788;28;20028;-79
2022/08/27 01:57:01;;;;;;;25.27;23.63;;;19.00;65.30;;;;;;5036136;28;20036;-79
2022/08/27 01:59:27;;;;;;;24.40;23.00;;;19.10;65.20;;;;;;5036260;28;20028;-79
2022/08/27 02:01:54;;;;;;;30.27;28.25;;;19.10;65.00;;;;;;5035194;28;20033;-79
2022/08/27 02:04:20;;;;;;;34.65;32.53;;;19.20;64.60;;;;;;5052623;28;20029;-79
2022/08/27 02:06:46;;;;;;;36.95;34.75;;;19.30;64.50;;;;;;5035831;28;20478;-79
2022/08/27 02:09:12;;;;;;;51.67;48.83;;;19.30;64.20;;;;;;5052480;28;20043;-79
2022/08/27 02:11:38;;;;;;;44.72;42.05;;;19.30;64.50;;;;;;5052437;28;20474;-79
2022/08/27 02:14:04;;;;;;;34.95;32.90;;;19.30;64.40;;;;;;5052380;28;20021;-79
2022/08/27 02:16:33;;;;;;;36.65;34.55;;;19.30;64.40;;;;;;5051351;28;20413;-79
2022/08/27 02:18:59;;;;;;;37.90;35.88;;;19.40;65.00;;;;;;5052301;28;20504;-79
2022/08/27 02:21:26;;;;;;;38.10;35.72;;;19.40;63.90;;;;;;5052194;28;20036;-79
2022/08/27 02:23:53;;;;;;;39.88;37.47;;;19.50;63.60;;;;;;5052190;28;20497;-79
2022/08/27 02:26:20;;;;;;;40.63;37.83;;;19.50;63.60;;;;;;5032220;28;20064;-79
2022/08/27 02:28:46;;;;;;;38.78;36.40;;;19.30;64.20;;;;;;5016076;28;20367;-79
2022/08/27 02:31:13;;;;;;;38.05;35.97;;;19.20;64.40;;;;;;5011050;28;20106;-79
2022/08/27 02:33:39;;;;;;;38.03;35.88;;;19.30;64.60;;;;;;4996233;28;20048;-79
2022/08/27 02:36:05;;;;;;;37.63;35.42;;;19.20;64.50;;;;;;5012090;28;20034;-79
2022/08/27 02:38:31;;;;;;;37.25;34.95;;;19.20;64.40;;;;;;5012373;28;20037;-79
2022/08/27 02:40:57;;;;;;;35.00;32.92;;;19.00;65.30;;;;;;5057141;28;20040;-79
2022/08/27 02:43:23;;;;;;;25.50;23.90;;;19.00;65.60;;;;;;5015478;28;20041;-79
2022/08/27 02:45:50;;;;;;;32.30;30.45;;;18.90;65.60;;;;;;5043084;28;20028;-79
2022/08/27 02:48:16;;;;;;;29.98;27.95;;;18.90;66.30;;;;;;5051614;28;20509;-79
2022/08/27 02:50:44;;;;;;;26.60;24.75;;;18.90;65.80;;;;;;5034972;28;20029;-79
2022/08/27 02:53:10;;;;;;;28.73;27.13;;;18.80;66.20;;;;;;5035456;28;20029;-79
2022/08/27 02:55:36;;;;;;;25.70;24.00;;;18.90;66.10;;;;;;5018688;28;20044;-79
2022/08/27 02:58:02;;;;;;;27.92;26.13;;;18.80;66.10;;;;;;5052402;28;20040;-79
2022/08/27 03:00:28;;;;;;;30.98;28.98;;;18.80;66.40;;;;;;5033870;28;20477;-79
2022/08/27 03:02:55;;;;;;;33.80;31.52;;;18.70;66.70;;;;;;5034898;28;20044;-79
2022/08/27 03:05:22;;;;;;;29.50;27.75;;;18.70;66.90;;;;;;5050702;28;20025;-79
2022/08/27 03:07:48;;;;;;;26.83;25.10;;;18.60;67.20;;;;;;5051481;28;20536;-79
2022/08/27 03:10:15;;;;;;;28.63;26.73;;;18.60;67.40;;;;;;5051385;28;20466;-79
2022/08/27 03:12:41;;;;;;;29.33;27.42;;;18.70;66.90;;;;;;5034590;28;20041;-79
2022/08/27 03:15:09;;;;;;;31.98;30.27;;;18.70;67.00;;;;;;5050884;28;20034;-79
2022/08/27 03:20:21;;;;;;;29.00;26.60;;;18.90;66.00;;;;;;5056452;28;20524;-79
2022/08/27 03:22:47;;;;;;;26.48;24.77;;;18.80;66.60;;;;;;5034481;28;20045;-79
2022/08/27 03:25:14;;;;;;;27.23;25.33;;;18.80;66.40;;;;;;5051040;28;20028;-79
2022/08/27 03:27:40;;;;;;;29.08;27.13;;;18.90;66.50;;;;;;5017815;28;20055;-79
2022/08/27 03:30:10;;;;;;;28.58;26.80;;;18.80;66.70;;;;;;5034157;28;20032;-79
2022/08/27 03:32:36;;;;;;;26.33;24.48;;;18.60;67.50;;;;;;5018449;28;20405;-79
2022/08/27 03:35:02;;;;;;;27.13;25.02;;;18.50;67.70;;;;;;5033718;28;20029;-79
2022/08/27 03:37:28;;;;;;;28.40;26.40;;;18.60;67.60;;;;;;5017649;28;20048;-79
2022/08/27 03:39:54;;;;;;;29.10;27.30;;;18.70;67.00;;;;;;5014676;28;20036;-79
2022/08/27 03:42:21;;;;;;;31.45;29.35;;;18.70;67.10;;;;;;5047099;28;20056;-79
2022/08/27 03:44:47;;;;;;;29.23;27.00;;;18.80;66.80;;;;;;5024773;28;20041;-79
2022/08/27 03:47:13;;;;;;;30.08;28.33;;;18.60;67.40;;;;;;5038401;28;20079;-79
2022/08/27 03:49:40;;;;;;;31.58;29.65;;;18.60;67.60;;;;;;5034144;28;20033;-79
2022/08/27 03:52:06;;;;;;;29.70;27.85;;;18.70;67.40;;;;;;5033837;28;20033;-79
2022/08/27 03:54:36;;;;;;;30.55;28.63;;;18.50;67.70;;;;;;5033929;28;20032;-79
2022/08/27 03:57:03;;;;;;;29.15;27.27;;;18.40;68.10;;;;;;5017188;28;20482;-79
2022/08/27 03:59:29;;;;;;;31.45;29.63;;;18.40;68.30;;;;;;5050343;28;20048;-79
2022/08/27 04:01:55;;;;;;;33.50;31.45;;;18.30;68.50;;;;;;5016688;28;20048;-79
2022/08/27 04:04:25;;;;;;;34.13;31.92;;;18.40;68.70;;;;;;5050387;28;20036;-79
2022/08/27 04:06:51;;;;;;;23.38;21.73;;;18.40;68.40;;;;;;5050117;28;20036;-79
2022/08/27 04:09:17;;;;;;;23.55;21.98;;;18.40;68.30;;;;;;5033552;28;20044;-79
2022/08/27 04:11:43;;;;;;;25.45;23.75;;;18.40;68.20;;;;;;5049880;28;20036;-79
2022/08/27 04:14:09;;;;;;;24.02;22.15;;;18.40;68.30;;;;;;5050539;28;20486;-79
2022/08/27 04:16:37;;;;;;;24.77;22.98;;;18.20;68.90;;;;;;5049302;28;20033;-79
2022/08/27 04:19:03;;;;;;;23.23;21.75;;;18.20;69.00;;;;;;5033531;28;20040;-79
2022/08/27 04:21:29;;;;;;;23.65;22.13;;;18.20;69.10;;;;;;5033275;28;20044;-79
2022/08/27 04:23:55;;;;;;;20.38;19.08;;;18.20;69.20;;;;;;5033441;28;20046;-79
2022/08/27 04:26:21;;;;;;;21.85;20.25;;;18.00;69.90;;;;;;5020884;28;20053;-79
2022/08/27 04:28:47;;;;;;;21.45;19.95;;;17.90;70.60;;;;;;4993800;28;20593;-79
2022/08/27 04:31:13;;;;;;;21.73;20.40;;;17.80;70.90;;;;;;5020655;28;20042;-79
2022/08/27 04:33:40;;;;;;;21.40;20.02;;;17.80;70.90;;;;;;5030070;28;20037;-79
2022/08/27 04:36:08;;;;;;;21.33;20.02;;;17.80;70.50;;;;;;5030989;28;20029;-79
2022/08/27 04:38:35;;;;;;;23.95;22.27;;;17.90;70.20;;;;;;5014303;28;20402;-79
2022/08/27 04:41:26;;;;;;;22.70;21.30;;;17.80;70.50;;;;;;5029942;28;20037;-80
2022/08/27 04:43:55;;;;;;;22.83;21.23;;;17.70;71.00;;;;;;5054833;28;20028;-79
2022/08/27 04:46:22;;;;;;;21.75;19.98;;;17.80;71.00;;;;;;5030723;28;20029;-79
2022/08/27 04:48:48;;;;;;;23.48;21.88;;;17.80;71.00;;;;;;5049396;28;20056;-79
2022/08/27 04:51:14;;;;;;;20.20;18.67;;;17.80;70.70;;;;;;5032646;28;20041;-79
2022/08/27 04:53:40;;;;;;;25.45;23.52;;;17.80;70.70;;;;;;5014619;28;20437;-79
2022/08/27 04:56:07;;;;;;;22.45;20.38;;;17.80;70.90;;;;;;5049332;28;20033;-79
2022/08/27 04:58:33;;;;;;;19.92;18.52;;;17.80;70.80;;;;;;5033020;28;20021;-79
2022/08/27 05:01:00;;;;;;;22.27;20.45;;;17.70;70.90;;;;;;5049001;28;20033;-79
2022/08/27 05:03:27;;;;;;;21.13;19.83;;;17.60;71.40;;;;;;5032591;28;20048;-79
2022/08/27 05:06:02;;;;;;;21.48;20.00;;;17.70;71.50;;;;;;5032627;28;20420;-79
2022/08/27 05:08:28;;;;;;;22.05;20.52;;;17.70;71.20;;;;;;5032198;28;20608;-79
2022/08/27 05:10:54;;;;;;;22.55;21.13;;;17.70;71.20;;;;;;5032582;28;20033;-79
2022/08/27 05:13:23;;;;;;;26.17;24.45;;;17.70;72.10;;;;;;5049330;28;20052;-80
2022/08/27 05:15:49;;;;;;;31.00;28.45;;;17.80;71.00;;;;;;5032512;28;20033;-79
2022/08/27 05:18:15;;;;;;;30.60;28.60;;;17.80;70.70;;;;;;5032694;28;20033;-79
2022/08/27 05:20:43;;;;;;;26.02;24.45;;;17.80;71.10;;;;;;5032516;28;20045;-79
2022/08/27 05:23:10;;;;;;;24.17;22.58;;;17.70;71.30;;;;;;5048731;28;20494;-79
2022/08/27 05:25:40;;;;;;;22.08;20.60;;;17.50;72.00;;;;;;5049185;28;20500;-79
2022/08/27 05:28:07;;;;;;;22.65;20.92;;;17.50;72.20;;;;;;5049605;28;20044;-79
2022/08/27 05:30:43;;;;;;;22.95;21.05;;;17.50;72.00;;;;;;5036394;28;20044;-79
2022/08/27 05:33:09;;;;;;;27.05;24.90;;;17.50;72.20;;;;;;5053410;28;20466;-80
2022/08/27 05:35:42;;;;;;;26.60;24.75;;;17.50;72.20;;;;;;5053109;28;20033;-79
2022/08/27 05:38:09;;;;;;;25.90;23.83;;;17.50;72.20;;;;;;5052798;28;20497;-79
2022/08/27 05:40:35;;;;;;;24.05;22.35;;;17.50;72.00;;;;;;5052909;28;20029;-79
2022/08/27 05:43:02;;;;;;;25.38;23.13;;;17.50;72.50;;;;;;5053196;28;20048;-79
2022/08/27 05:45:28;;;;;;;26.20;24.38;;;17.50;72.50;;;;;;5041163;28;20508;-79
2022/08/27 05:47:54;;;;;;;27.42;25.75;;;17.50;72.70;;;;;;5037592;28;20128;-79
2022/08/27 05:50:20;;;;;;;27.63;25.75;;;17.60;72.30;;;;;;5052828;28;20418;-79
2022/08/27 05:52:46;;;;;;;23.45;21.75;;;17.60;72.30;;;;;;5052393;28;20033;-79
2022/08/27 05:55:12;;;;;;;22.38;20.63;;;17.70;72.40;;;;;;5036263;28;20025;-79
2022/08/27 05:57:38;;;;;;;23.40;21.30;;;17.70;72.60;;;;;;5019650;28;20044;-79
2022/08/27 06:02:50;;;;;;;21.90;20.35;;;17.70;72.40;;;;;;5054932;28;20032;-79
2022/08/27 06:05:16;;;;;;;22.83;20.95;;;17.60;72.90;;;;;;5052695;28;20062;-79
2022/08/27 06:07:42;;;;;;;24.02;22.38;;;17.60;73.10;;;;;;5052402;28;20037;-79
2022/08/27 06:10:09;;;;;;;24.27;22.17;;;17.50;73.30;;;;;;5035369;28;20417;-79
2022/08/27 06:12:35;;;;;;;22.38;20.75;;;17.50;73.80;;;;;;5035946;28;20060;-79
2022/08/27 06:15:01;;;;;;;24.42;22.42;;;17.60;73.60;;;;;;5052691;28;20033;-79
2022/08/27 06:17:27;;;;;;;24.58;22.88;;;17.70;73.60;;;;;;5051840;28;20048;-79
2022/08/27 06:19:54;;;;;;;24.38;22.23;;;17.80;73.10;;;;;;5052444;28;20032;-79
2022/08/27 06:22:20;;;;;;;24.05;22.25;;;18.00;72.80;;;;;;5053260;28;20040;-79
2022/08/27 06:24:46;;;;;;;24.58;22.75;;;18.10;72.20;;;;;;5052069;28;20021;-79
2022/08/27 06:27:14;;;;;;;25.75;24.00;;;18.20;72.00;;;;;;5052178;28;20032;-79
2022/08/27 06:29:40;;;;;;;28.13;26.10;;;18.30;71.70;;;;;;5035016;28;20414;-79
2022/08/27 06:32:06;;;;;;;31.30;29.05;;;18.40;71.10;;;;;;5049608;28;20482;-79
2022/08/27 06:34:32;;;;;;;28.75;26.67;;;18.40;71.10;;;;;;5052023;28;20021;-79
2022/08/27 06:36:59;;;;;;;29.48;27.52;;;18.40;71.30;;;;;;5051694;28;20040;-79
2022/08/27 06:39:25;;;;;;;28.75;26.90;;;18.40;71.60;;;;;;5050794;28;20059;-79
2022/08/27 06:41:51;;;;;;;28.88;26.88;;;18.40;71.20;;;;;;5051163;28;20033;-79
2022/08/27 06:44:18;;;;;;;28.98;26.73;;;18.50;71.10;;;;;;5046358;28;20040;-79
2022/08/27 06:46:44;;;;;;;27.30;25.20;;;18.40;71.40;;;;;;5039805;28;20033;-79
2022/08/27 06:49:10;;;;;;;28.88;26.77;;;18.60;71.10;;;;;;5051857;28;20036;-79
2022/08/27 06:51:37;;;;;;;28.92;26.77;;;18.80;70.60;;;;;;5034940;28;20038;-79
2022/08/27 06:54:08;;;;;;;31.10;28.88;;;19.00;69.90;;;;;;5018534;28;20051;-79
2022/08/27 06:56:35;;;;;;;;;;;19.00;69.60;;;;;;5036050;28;20025;-79
2022/08/27 06:59:03;;;;;;;29.45;27.65;;;19.10;69.50;;;;;;5051759;28;19912;-79
2022/08/27 07:01:30;;;;;;;28.58;26.52;;;19.20;69.30;;;;;;5017991;28;20033;-79
2022/08/27 07:03:58;;;;;;;27.42;25.63;;;19.30;69.00;;;;;;5034796;28;20505;-79
2022/08/27 07:06:25;;;;;;;26.88;25.10;;;19.40;68.60;;;;;;5051327;28;20029;-79
2022/08/27 07:08:51;;;;;;;27.95;25.83;;;19.50;68.00;;;;;;5034444;28;20539;-79
2022/08/27 07:11:17;;;;;;;28.40;26.48;;;19.50;68.30;;;;;;5034477;28;20044;-79
2022/08/27 07:13:45;;;;;;;28.30;26.48;;;19.50;68.10;;;;;;5051410;28;20036;-79
2022/08/27 07:16:13;;;;;;;28.52;26.42;;;19.50;68.20;;;;;;5033836;28;20397;-79
2022/08/27 07:18:39;;;;;;;28.48;26.60;;;19.60;68.10;;;;;;5034531;28;20045;-79
2022/08/27 07:21:06;;;;;;;29.83;27.70;;;19.70;67.90;;;;;;5050834;28;20025;-80
2022/08/27 07:23:32;;;;;;;26.83;25.10;;;19.80;67.70;;;;;;5051137;28;20036;-79
2022/08/27 07:25:58;;;;;;;26.02;24.17;;;19.90;67.20;;;;;;5050933;28;20052;-79
2022/08/27 07:28:25;;;;;;;27.15;25.42;;;20.00;66.60;;;;;;5034509;28;20410;-79
2022/08/27 07:30:51;;;;;;;26.73;24.80;;;19.90;67.00;;;;;;5033637;28;20032;-80
2022/08/27 07:33:18;;;;;;;30.38;27.75;;;20.00;67.00;;;;;;5034215;28;20485;-79
2022/08/27 07:35:45;;;;;;;24.58;22.77;;;20.10;66.60;;;;;;5033917;28;20041;-80
2022/08/27 07:38:12;;;;;;;25.45;23.65;;;20.40;66.30;;;;;;5050807;28;20029;-80
2022/08/27 07:40:39;;;;;;;22.48;20.98;;;20.60;65.30;;;;;;5017279;28;20506;-80
2022/08/27 07:45:54;;;;;;;24.38;22.67;;;20.70;65.00;;;;;;5031782;28;20504;-80
2022/08/27 07:48:22;;;;;;;28.08;26.05;;;20.80;64.60;;;;;;5033648;28;20060;-79
2022/08/27 07:50:49;;;;;;;27.02;25.25;;;21.10;64.40;;;;;;5017465;28;20410;-80
2022/08/27 07:53:15;;;;;;;25.98;23.98;;;21.40;63.60;;;;;;5017694;28;20041;-80
2022/08/27 07:55:41;;;;;;;27.50;25.75;;;21.40;62.80;;;;;;5017273;28;20040;-78
2022/08/27 07:58:09;;;;;;;25.08;23.52;;;21.70;62.40;;;;;;5033997;28;20470;-78
2022/08/27 08:00:35;;;;;;;30.33;28.52;;;21.90;62.10;;;;;;5033347;28;20033;-78
2022/08/27 08:03:02;;;;;;;31.10;28.98;;;22.10;60.90;;;;;;5033413;28;20087;-77
2022/08/27 08:05:28;;;;;;;29.58;27.77;;;22.00;60.80;;;;;;5050200;28;20175;-78
2022/08/27 08:07:54;;;;;;;29.90;28.05;;;22.10;60.70;;;;;;5033728;28;20041;-78
2022/08/27 08:10:22;;;;;;;31.13;29.08;;;22.20;60.70;;;;;;5033391;28;20040;-78
2022/08/27 08:12:48;;;;;;;29.65;27.77;;;22.30;61.30;;;;;;5050234;28;20410;-77
2022/08/27 08:15:16;;;;;;;30.27;28.38;;;22.50;59.80;;;;;;5049650;28;20033;-78
2022/08/27 08:17:42;;;;;;;32.67;30.48;;;22.60;60.20;;;;;;5050010;28;20079;-78
2022/08/27 08:20:10;;;;;;;29.38;27.63;;;22.90;59.20;;;;;;5033214;28;20036;-78
2022/08/27 08:22:36;;;;;;;30.45;28.55;;;23.00;58.70;;;;;;5033689;28;20040;-78
2022/08/27 08:25:03;;;;;;;35.13;33.10;;;23.00;58.70;;;;;;5050014;28;20041;-78
2022/08/27 08:27:31;;;;;;;43.53;40.88;;;23.20;58.40;;;;;;5033517;28;20029;-78
2022/08/27 08:29:58;;;;;;;60.72;57.55;;;23.40;58.30;;;;;;5033496;28;20045;-78
2022/08/27 08:32:24;;;;;;;30.70;28.90;;;23.60;57.40;;;;;;5032534;28;20476;-78
2022/08/27 08:34:50;;;;;;;46.03;43.38;;;23.50;57.30;;;;;;5033364;28;20393;-77
2022/08/27 08:37:17;;;;;;;43.28;40.63;;;23.30;57.80;;;;;;5032627;28;20041;-78
2022/08/27 08:39:43;;;;;;;38.47;36.25;;;23.40;57.60;;;;;;5029220;28;20041;-78
2022/08/27 08:42:36;;;;;;;32.85;31.05;;;23.60;57.40;;;;;;5046271;28;20382;-78
2022/08/27 08:45:03;;;;;;;31.55;29.85;;;23.80;56.70;;;;;;5040305;28;20025;-78
2022/08/27 08:47:40;;;;;;;31.73;30.13;;;24.00;56.30;;;;;;5031959;28;20049;-78
2022/08/27 08:50:27;;;;;;;29.58;27.98;;;24.00;56.50;;;;;;5049554;28;20041;-78
2022/08/27 08:53:01;;;;;;;30.98;29.10;;;23.90;56.60;;;;;;5033168;28;20497;-78
2022/08/27 08:55:40;;;;;;;30.15;28.48;;;24.00;56.70;;;;;;5049567;28;20405;-78
2022/08/27 08:58:33;;;;;;;30.00;28.40;;;24.10;56.10;;;;;;5049454;28;20029;-78
2022/08/27 09:01:01;;;;;;;31.65;29.85;;;24.10;55.90;;;;;;5045315;28;20032;-78
2022/08/27 09:03:27;;;;;;;34.28;32.25;;;24.10;55.90;;;;;;5048696;28;20033;-78
2022/08/27 09:06:15;;;;;;;32.20;30.50;;;24.10;55.90;;;;;;5049302;28;20048;-78
2022/08/27 09:08:41;;;;;;;35.50;33.47;;;24.10;56.20;;;;;;5031058;28;20041;-77
2022/08/27 09:11:39;;;;;;;35.53;33.42;;;24.20;55.80;;;;;;5048048;28;20052;-78
2022/08/27 09:14:21;;;;;;;34.70;32.70;;;24.40;55.80;;;;;;5031480;28;20079;-78
2022/08/27 09:16:48;;;;;;;38.05;35.95;;;24.70;55.00;;;;;;5030588;28;20036;-78
2022/08/27 09:19:14;;;;;;;49.63;46.83;;;24.80;54.80;;;;;;5031485;28;20041;-80
2022/08/27 09:21:48;;;;;;;44.58;42.08;;;25.00;54.10;;;;;;5048109;28;20037;-80
2022/08/27 09:24:34;;;;;;;48.95;45.95;;;25.10;53.70;;;;;;5030899;28;20474;-80
2022/08/27 09:27:00;;;;;;;48.40;45.70;;;25.30;53.50;;;;;;5027582;28;20049;-80
2022/08/27 09:29:27;;;;;;;52.30;49.53;;;25.40;53.80;;;;;;5027327;28;20076;-81
2022/08/27 09:31:59;;;;;;;52.10;48.63;;;25.60;53.60;;;;;;5010864;28;20037;-80
2022/08/27 09:34:27;;;;;;;46.38;43.80;;;25.80;53.20;;;;;;5027634;28;20029;-80
2022/08/27 09:36:58;;;;;;;50.03;47.33;;;25.90;52.30;;;;;;5027944;28;20033;-77
2022/08/27 09:39:33;;;;;;;49.53;47.00;;;25.80;52.20;;;;;;5027700;28;20479;-78
2022/08/27 09:41:59;;;;;;;48.50;45.90;;;25.90;52.20;;;;;;5027994;28;20046;-78
2022/08/27 09:44:25;;;;;;;38.35;36.20;;;26.00;51.80;;;;;;5011062;28;20506;-78
2022/08/27 09:47:01;;;;;;;45.10;42.50;;;26.20;51.60;;;;;;5027143;28;20049;-78
2022/08/27 09:49:27;;;;;;;43.83;41.28;;;26.00;51.70;;;;;;4995049;28;20042;-78
2022/08/27 09:51:54;;;;;;;40.70;38.55;;;26.10;52.00;;;;;;5011367;28;20044;-78
2022/08/27 09:54:39;;;;;;;38.97;36.80;;;26.20;51.20;;;;;;4995119;28;20411;-78
2022/08/27 09:57:06;;;;;;;39.83;37.25;;;26.20;51.10;;;;;;4996631;28;20052;-78
2022/08/27 09:59:37;;;;;;;43.50;41.13;;;26.20;51.60;;;;;;4994344;28;20488;-78
2022/08/27 10:02:03;;;;;;;42.42;39.97;;;26.40;52.00;;;;;;4978532;28;20037;-78
2022/08/27 10:04:36;;;;;;;42.38;40.10;;;26.70;50.50;;;;;;5029306;28;20037;-78
2022/08/27 10:07:40;;;;;;;42.40;40.10;;;26.80;49.90;;;;;;5011980;28;20044;-78
2022/08/27 10:10:20;;;;;;;46.80;44.15;;;26.90;50.10;;;;;;5028642;28;20520;-78
2022/08/27 10:13:00;;;;;;;38.70;36.65;;;27.00;49.50;;;;;;5028991;28;20380;-78
2022/08/27 10:15:29;;;;;;;40.63;38.42;;;26.90;49.50;;;;;;5014224;28;20036;-78
2022/08/27 10:18:42;;;;;;;42.40;40.25;;;27.00;49.80;;;;;;5032514;28;20384;-78
2022/08/27 10:21:31;;;;;;;1999.90;999.90;;;27.20;48.80;;;;;;5011168;28;20038;-78
2022/08/27 10:24:12;;;;;;;1999.90;999.90;;;27.30;48.50;;;;;;5011247;28;20037;-79
2022/08/27 10:27:01;;;;;;;;;;;27.40;46.90;;;;;;4991781;28;20050;-78
2022/08/27 10:29:41;;;;;;;1999.90;999.90;;;27.50;46.50;;;;;;4955828;28;19914;-78
2022/08/27 10:32:30;;;;;;;1999.90;999.90;;;27.60;46.30;;;;;;4987330;28;20126;-78
2022/08/27 10:35:02;;;;;;;35.85;33.88;;;27.50;45.50;;;;;;4972245;28;20286;-78
2022/08/27 10:37:44;;;;;;;40.28;38.28;;;27.30;46.10;;;;;;4988421;28;20039;-78
2022/08/27 10:40:27;;;;;;;1999.90;999.90;;;27.30;46.90;;;;;;4987518;28;20039;-81
2022/08/27 10:43:12;;;;;;;41.45;39.13;;;27.50;46.40;;;;;;4987962;28;20554;-81
2022/08/27 10:45:53;;;;;;;45.78;43.47;;;27.50;45.60;;;;;;4984157;28;20513;-81
2022/08/27 10:48:24;;;;;;;41.35;39.20;;;27.70;45.60;;;;;;4974887;28;20182;-81
2022/08/27 10:50:50;;;;;;;33.45;31.75;;;27.60;43.70;;;;;;5007435;28;20057;-81
2022/08/27 10:53:31;;;;;;;36.30;34.42;;;27.60;42.50;;;;;;5007823;28;20065;-81
2022/08/27 10:56:10;;;;;;;31.52;29.83;;;27.50;41.60;;;;;;4991489;28;20045;-81
2022/08/27 10:59:03;;;;;;;30.83;29.23;;;27.50;41.70;;;;;;5057690;28;20045;-81
2022/08/27 11:01:33;;;;;;;44.03;41.80;;;27.50;41.70;;;;;;5029738;28;20044;-81
2022/08/27 11:04:06;;;;;;;32.88;30.92;;;27.70;42.00;;;;;;5031697;28;20041;-81
2022/08/27 11:06:41;;;;;;;40.33;38.25;;;27.70;42.30;;;;;;4999531;28;20038;-81
2022/08/27 11:09:18;;;;;;;35.92;33.92;;;27.70;41.60;;;;;;5000245;28;20053;-81
2022/08/27 11:11:50;;;;;;;31.98;30.38;;;27.80;40.80;;;;;;4998677;28;20394;-81
2022/08/27 11:14:51;;;;;;;35.33;33.53;;;27.80;41.30;;;;;;5015250;28;20037;-81
2022/08/27 11:17:32;;;;;;;36.50;34.60;;;27.90;41.00;;;;;;5014202;28;20033;-81
2022/08/27 11:20:14;;;;;;;33.53;31.83;;;28.00;42.40;;;;;;5015499;28;20045;-81
2022/08/27 11:22:51;;;;;;;1999.90;999.90;;;28.10;41.40;;;;;;5015021;28;20037;-81
2022/08/27 11:25:20;;;;;;;34.13;32.33;;;28.10;40.10;;;;;;5004563;28;20048;-81
2022/08/27 11:27:48;;;;;;;36.30;34.38;;;28.20;41.00;;;;;;5051624;28;20029;-81
2022/08/27 11:30:40;;;;;;;1999.90;999.90;;;28.20;40.80;;;;;;5050586;28;20382;-81
2022/08/27 11:33:09;;;;;;;1999.90;999.90;;;28.40;40.80;;;;;;5051225;28;20033;-81
2022/08/27 11:35:48;;;;;;;1017.60;516.75;;;28.40;40.50;;;;;;5052473;28;20035;-81
2022/08/27 11:38:36;;;;;;;1999.90;999.90;;;28.20;40.00;;;;;;5052120;28;20029;-81
2022/08/27 11:41:09;;;;;;;1999.90;999.90;;;28.50;39.60;;;;;;5050385;28;20025;-81
2022/08/27 11:43:35;;;;;;;1999.90;999.90;;;28.70;39.60;;;;;;5050841;28;20502;-81
2022/08/27 11:46:04;;;;;;;1999.90;999.90;;;28.40;39.50;;;;;;5055662;28;20033;-81
2022/08/27 11:48:31;;;;;;;1999.90;999.90;;;28.40;38.50;;;;;;5017841;28;20398;-81
2022/08/27 11:51:10;;;;;;;1999.90;999.90;;;28.30;39.30;;;;;;5050705;28;20029;-81
2022/08/27 11:53:42;;;;;;;1999.90;999.90;;;28.30;39.20;;;;;;5050621;28;20359;-81
2022/08/27 11:56:14;;;;;;;1999.90;999.90;;;28.40;38.70;;;;;;5017052;28;20040;-81
2022/08/27 11:58:42;;;;;;;1999.90;999.90;;;28.60;38.70;;;;;;5034174;28;20520;-81
2022/08/27 12:01:34;;;;;;;1999.90;999.90;;;28.70;38.70;;;;;;5033236;28;20033;-81
2022/08/27 12:04:06;;;;;;;1999.90;999.90;;;28.70;38.60;;;;;;5049942;28;20390;-81
2022/08/27 12:06:40;;;;;;;1999.90;999.90;;;28.70;39.40;;;;;;5033599;28;20045;-81
2022/08/27 12:09:18;;;;;;;1999.90;999.90;;;28.60;38.10;;;;;;5033322;28;20144;-81
2022/08/27 12:11:53;;;;;;;1999.90;999.90;;;28.70;38.30;;;;;;5034001;28;20044;-81
2022/08/27 12:14:22;;;;;;;1999.90;999.90;;;28.50;37.50;;;;;;5050347;28;20059;-81
2022/08/27 12:17:08;;;;;;;1999.90;999.90;;;28.50;38.00;;;;;;5050821;28;20048;-81
2022/08/27 12:19:40;;;;;;;1999.90;999.90;;;28.60;37.80;;;;;;5050245;28;20485;-80
2022/08/27 12:22:24;;;;;;;1999.90;999.90;;;28.70;38.40;;;;;;5050253;28;20037;-81
2022/08/27 12:24:55;;;;;;;1999.90;999.90;;;28.70;38.50;;;;;;5045542;28;20056;-81
2022/08/27 12:27:21;;;;;;;1999.90;999.90;;;28.70;36.90;;;;;;5010458;28;20030;-81
2022/08/27 12:29:52;;;;;;;1999.90;999.90;;;28.80;37.40;;;;;;5010406;28;20042;-81
2022/08/27 12:32:34;;;;;;;1999.90;999.90;;;28.90;37.60;;;;;;4993306;28;20026;-81
2022/08/27 12:35:08;;;;;;;1999.90;999.90;;;28.80;37.60;;;;;;5010397;28;20413;-81
2022/08/27 12:38:11;;;;;;;1999.90;999.90;;;28.70;36.60;;;;;;5009753;28;20034;-81
2022/08/27 12:40:59;;;;;;;1999.90;999.90;;;28.90;37.70;;;;;;5001640;28;20041;-81
2022/08/27 12:43:26;;;;;;;1999.90;999.90;;;29.40;36.20;;;;;;5010117;28;20037;-81
2022/08/27 12:46:14;;;;;;;1999.90;999.90;;;29.90;36.40;;;;;;5011224;28;20062;-81